Time;durP1;ratioP1;P1;durP2;ratioP2;P2;SDS_P1;SDS_P2;PMS_P1;PMS_P2;Temp;Humidity;BMP_temperature;BMP_pressure;BME280_temperature;BME280_humidity;BME280_pressure;Samples;Min_cycle;Max_cycle;Signal;HPM_P1;HPM_P2
2023/04/01 00:02:43;;;;;;;5.97;4.20;;;;;;;;;;6241931;28;20053;-79
2023/04/01 00:05:44;;;;;;;7.47;4.20;;;;;;;;;;6240900;28;20056;-79
2023/04/01 00:08:48;;;;;;;5.70;4.15;;;;;;;;;;6238269;28;20197;-79
2023/04/01 00:11:49;;;;;;;6.45;4.50;;;;;;;;;;6241796;28;20065;-80
2023/04/01 00:14:51;;;;;;;8.48;5.40;;;;;;;;;;6240796;28;20071;-80
2023/04/01 00:17:55;;;;;;;7.22;5.00;;;;;;;;;;6243986;28;20287;-79
2023/04/01 00:20:56;;;;;;;8.10;5.20;;;;;;;;;;6243018;28;20049;-78
2023/04/01 00:24:00;;;;;;;9.95;5.25;;;;;;;;;;6244216;28;20476;-79
2023/04/01 00:27:02;;;;;;;7.33;5.30;;;;;;;;;;6241923;28;20054;-79
2023/04/01 00:30:04;;;;;;;9.75;6.10;;;;;;;;;;6242358;28;20057;-80
2023/04/01 00:33:06;;;;;;;9.35;6.25;;;;;;;;;;6244031;28;20056;-80
2023/04/01 00:36:10;;;;;;;8.85;6.00;;;;;;;;;;6243449;28;20124;-80
2023/04/01 00:39:13;;;;;;;10.80;5.45;;;;;;;;;;6243583;28;20245;-79
2023/04/01 00:42:15;;;;;;;9.83;5.40;;;;;;;;;;6242976;28;20057;-80
2023/04/01 00:45:30;;;;;;;6.90;4.78;;;;;;;;;;6244296;28;20061;-79
2023/04/01 00:48:34;;;;;;;9.18;5.25;;;;;;;;;;6242378;28;20057;-80
2023/04/01 00:51:37;;;;;;;7.25;4.85;;;;;;;;;;6243559;28;20057;-80
2023/04/01 00:54:43;;;;;;;6.83;4.93;;;;;;;;;;6241426;28;20045;-80
2023/04/01 00:57:44;;;;;;;7.40;4.80;;;;;;;;;;6242805;28;20526;-79
2023/04/01 01:00:48;;;;;;;7.05;4.53;;;;;;;;;;6239904;28;20056;-80
2023/04/01 01:03:51;;;;;;;8.50;4.88;;;;;;;;;;6241047;28;20064;-79
2023/04/01 01:06:59;;;;;;;10.48;5.45;;;;;;;;;;6241758;28;20058;-79
2023/04/01 01:10:05;;;;;;;9.02;4.93;;;;;;;;;;6239267;28;20118;-79
2023/04/01 01:13:12;;;;;;;7.47;4.75;;;;;;;;;;6245136;28;20042;-79
2023/04/01 01:16:18;;;;;;;8.68;4.90;;;;;;;;;;6241306;28;20333;-79
2023/04/01 01:19:37;;;;;;;7.20;4.97;;;;;;;;;;6240164;28;20057;-79
2023/04/01 01:22:52;;;;;;;7.68;5.82;;;;;;;;;;6246870;28;20526;-79
2023/04/01 01:26:00;;;;;;;7.47;4.85;;;;;;;;;;6238857;28;20077;-80
2023/04/01 01:29:09;;;;;;;10.38;5.25;;;;;;;;;;6239498;28;20049;-80
2023/04/01 01:32:20;;;;;;;9.23;5.43;;;;;;;;;;6239134;28;20060;-79
2023/04/01 01:35:25;;;;;;;7.35;5.28;;;;;;;;;;6243370;28;20045;-79
2023/04/01 01:38:30;;;;;;;8.80;5.65;;;;;;;;;;6241407;28;20069;-80
2023/04/01 01:41:36;;;;;;;9.13;6.57;;;;;;;;;;6240753;28;20045;-80
2023/04/01 01:44:38;;;;;;;8.77;6.38;;;;;;;;;;6242058;28;20058;-81
2023/04/01 01:47:41;;;;;;;10.27;6.88;;;;;;;;;;6241733;28;20062;-80
2023/04/01 01:50:46;;;;;;;9.30;6.32;;;;;;;;;;6241604;28;20280;-78
2023/04/01 01:53:47;;;;;;;10.15;7.03;;;;;;;;;;6242397;28;20225;-80
2023/04/01 01:56:52;;;;;;;9.27;7.10;;;;;;;;;;6241667;28;20060;-79
2023/04/01 01:59:57;;;;;;;7.88;6.38;;;;;;;;;;6242611;28;20060;-80
2023/04/01 02:02:59;;;;;;;9.40;6.43;;;;;;;;;;6240721;28;20068;-80
2023/04/01 02:06:04;;;;;;;8.40;6.80;;;;;;;;;;6243749;28;20123;-80
2023/04/01 02:09:07;;;;;;;6.97;5.35;;;;;;;;;;6242106;28;20146;-79
2023/04/01 02:12:15;;;;;;;8.82;6.00;;;;;;;;;;6241567;28;20088;-79
2023/04/01 02:15:22;;;;;;;8.27;5.63;;;;;;;;;;6244093;28;20049;-81
2023/04/01 02:18:33;;;;;;;7.80;4.60;;;;;;;;;;6238500;28;20054;-79
2023/04/01 02:21:37;;;;;;;6.68;4.97;;;;;;;;;;6239496;28;20068;-79
2023/04/01 02:24:43;;;;;;;7.78;4.57;;;;;;;;;;6239613;28;20053;-80
2023/04/01 02:27:46;;;;;;;8.25;5.18;;;;;;;;;;6241824;28;20292;-79
2023/04/01 02:30:48;;;;;;;5.45;4.38;;;;;;;;;;6239732;28;20057;-80
2023/04/01 02:33:50;;;;;;;6.82;4.93;;;;;;;;;;6238574;28;20050;-80
2023/04/01 02:36:54;;;;;;;5.18;4.60;;;;;;;;;;6240884;28;20058;-79
2023/04/01 02:40:00;;;;;;;7.57;4.82;;;;;;;;;;6240693;28;20359;-79
2023/04/01 02:43:02;;;;;;;8.02;4.80;;;;;;;;;;6243315;28;20059;-79
2023/04/01 02:46:06;;;;;;;7.63;5.10;;;;;;;;;;6242168;28;20064;-80
2023/04/01 02:49:08;;;;;;;7.72;4.60;;;;;;;;;;6240607;28;20073;-79
2023/04/01 02:52:12;;;;;;;5.82;4.75;;;;;;;;;;6228912;28;20218;-79
2023/04/01 02:55:18;;;;;;;6.22;4.50;;;;;;;;;;6241371;28;20045;-79
2023/04/01 02:58:23;;;;;;;7.38;4.82;;;;;;;;;;6238993;28;20049;-79
2023/04/01 03:01:34;;;;;;;6.35;4.72;;;;;;;;;;6239138;28;20073;-79
2023/04/01 03:04:36;;;;;;;7.82;5.07;;;;;;;;;;6238983;28;20095;-80
2023/04/01 03:07:39;;;;;;;6.78;4.85;;;;;;;;;;6239307;28;20046;-79
2023/04/01 03:10:40;;;;;;;6.88;4.57;;;;;;;;;;6239388;28;20053;-79
2023/04/01 03:13:42;;;;;;;6.35;4.68;;;;;;;;;;6238901;28;20057;-78
2023/04/01 03:16:44;;;;;;;5.78;4.55;;;;;;;;;;6239196;28;20107;-79
2023/04/01 03:19:46;;;;;;;6.95;4.90;;;;;;;;;;6240404;28;20065;-80
2023/04/01 03:22:49;;;;;;;6.20;4.63;;;;;;;;;;6239759;28;20057;-79
2023/04/01 03:25:51;;;;;;;9.15;5.25;;;;;;;;;;6241673;28;20246;-79
2023/04/01 03:28:56;;;;;;;7.82;5.18;;;;;;;;;;6239813;28;20054;-79
2023/04/01 03:31:58;;;;;;;7.68;4.72;;;;;;;;;;6239795;28;20053;-80
2023/04/01 03:35:00;;;;;;;9.73;5.18;;;;;;;;;;6237553;28;20060;-79
2023/04/01 03:38:03;;;;;;;7.53;5.25;;;;;;;;;;6237954;28;20057;-79
2023/04/01 03:41:05;;;;;;;7.65;4.22;;;;;;;;;;6239628;28;20049;-79
2023/04/01 03:44:07;;;;;;;9.73;4.57;;;;;;;;;;6241744;28;20109;-80
2023/04/01 03:47:10;;;;;;;8.05;4.20;;;;;;;;;;6238710;28;20061;-79
2023/04/01 03:50:12;;;;;;;6.97;4.28;;;;;;;;;;6240040;28;20108;-80
2023/04/01 03:53:15;;;;;;;6.47;3.95;;;;;;;;;;6239388;28;20060;-80
2023/04/01 03:56:17;;;;;;;5.15;3.90;;;;;;;;;;6237522;28;20080;-80
2023/04/01 03:59:18;;;;;;;4.78;3.75;;;;;;;;;;6240384;28;20058;-80
2023/04/01 04:02:20;;;;;;;6.32;3.67;;;;;;;;;;6238046;28;20057;-79
2023/04/01 04:05:22;;;;;;;6.03;3.63;;;;;;;;;;6237389;28;20073;-80
2023/04/01 04:08:25;;;;;;;5.22;3.47;;;;;;;;;;6240512;28;20057;-80
2023/04/01 04:11:27;;;;;;;5.20;3.50;;;;;;;;;;6239404;28;20049;-79
2023/04/01 04:14:29;;;;;;;4.57;3.33;;;;;;;;;;6240149;28;20049;-79
2023/04/01 04:17:31;;;;;;;6.45;3.22;;;;;;;;;;6237638;28;20509;-80
2023/04/01 04:20:32;;;;;;;5.32;3.17;;;;;;;;;;6238556;28;20065;-79
2023/04/01 04:23:37;;;;;;;4.85;3.45;;;;;;;;;;6240881;28;20057;-79
2023/04/01 04:26:38;;;;;;;;;;;;;;;;;;6227133;28;20415;-80
2023/04/01 04:29:40;;;;;;;6.78;3.17;;;;;;;;;;6241263;28;19916;-79
2023/04/01 04:32:42;;;;;;;3.90;2.80;;;;;;;;;;6236745;28;20046;-80
2023/04/01 04:35:44;;;;;;;4.82;2.92;;;;;;;;;;6243463;28;20053;-79
2023/04/01 04:38:47;;;;;;;5.13;3.00;;;;;;;;;;6242689;28;20064;-80
2023/04/01 04:41:49;;;;;;;4.20;2.75;;;;;;;;;;6242965;28;20058;-79
2023/04/01 04:44:51;;;;;;;4.65;2.45;;;;;;;;;;6239378;28;20050;-79
2023/04/01 04:47:53;;;;;;;3.92;2.47;;;;;;;;;;6242312;28;20234;-80
2023/04/01 04:50:54;;;;;;;3.90;2.38;;;;;;;;;;6245673;28;20054;-78
2023/04/01 04:53:57;;;;;;;4.78;2.65;;;;;;;;;;6225182;28;20245;-79
2023/04/01 04:57:05;;;;;;;4.72;2.58;;;;;;;;;;6240075;28;20221;-79
2023/04/01 05:00:09;;;;;;;3.65;2.67;;;;;;;;;;6242225;28;20065;-81
2023/04/01 05:03:11;;;;;;;4.45;2.80;;;;;;;;;;6244067;28;20050;-80
2023/04/01 05:06:15;;;;;;;2.90;2.35;;;;;;;;;;6245150;28;20072;-79
2023/04/01 05:09:18;;;;;;;5.50;2.63;;;;;;;;;;6214388;28;20053;-79
2023/04/01 05:12:20;;;;;;;4.87;2.50;;;;;;;;;;6243701;28;20345;-79
2023/04/01 05:15:22;;;;;;;7.65;2.42;;;;;;;;;;6248089;28;20061;-79
2023/04/01 05:18:24;;;;;;;4.75;2.90;;;;;;;;;;6241870;28;20198;-79
2023/04/01 05:21:25;;;;;;;7.78;2.60;;;;;;;;;;6245611;28;20277;-80
2023/04/01 05:24:28;;;;;;;5.53;2.85;;;;;;;;;;6246536;28;20076;-79
2023/04/01 05:27:31;;;;;;;4.50;2.80;;;;;;;;;;6246532;28;20085;-78
2023/04/01 05:30:33;;;;;;;4.43;2.53;;;;;;;;;;6246021;28;20053;-85
2023/04/01 05:33:35;;;;;;;6.03;2.95;;;;;;;;;;6247853;28;20049;-83
2023/04/01 05:36:38;;;;;;;53.75;11.00;;;;;;;;;;6244688;28;20060;-82
2023/04/01 05:39:44;;;;;;;33.70;7.50;;;;;;;;;;6247569;28;20049;-82
2023/04/01 05:42:46;;;;;;;15.55;4.13;;;;;;;;;;6245862;28;20119;-79
2023/04/01 05:45:49;;;;;;;10.93;4.82;;;;;;;;;;6245171;28;20493;-79
2023/04/01 05:52:13;;;;;;;3.85;2.67;;;;;;;;;;6237692;28;20076;-84
2023/04/01 05:55:16;;;;;;;3.17;2.50;;;;;;;;;;6236772;28;20041;-82
2023/04/01 05:58:18;;;;;;;5.43;2.50;;;;;;;;;;6240438;28;20057;-84
2023/04/01 06:01:20;;;;;;;3.97;2.63;;;;;;;;;;6241788;28;20087;-84
2023/04/01 06:04:22;;;;;;;6.90;2.97;;;;;;;;;;6241866;28;20061;-83
2023/04/01 06:07:28;;;;;;;5.65;2.40;;;;;;;;;;6242036;28;20057;-83
2023/04/01 06:10:43;;;;;;;6.75;2.70;;;;;;;;;;6244360;28;20062;-84
2023/04/01 06:13:59;;;;;;;6.20;2.40;;;;;;;;;;6240692;28;21144;-83
2023/04/01 06:17:13;;;;;;;3.08;2.35;;;;;;;;;;6241019;28;20049;-83
2023/04/01 06:20:17;;;;;;;;;;;;;;;;;;6242549;28;20061;-83
2023/04/01 06:23:27;;;;;;;5.00;2.88;;;;;;;;;;6243895;28;19924;-84
2023/04/01 06:26:37;;;;;;;4.32;2.47;;;;;;;;;;6241185;28;20062;-84
2023/04/01 06:29:48;;;;;;;4.85;2.47;;;;;;;;;;6222872;28;20108;-83
2023/04/01 06:33:01;;;;;;;4.53;2.47;;;;;;;;;;6241197;28;20099;-83
2023/04/01 06:36:26;;;;;;;5.72;2.83;;;;;;;;;;6240755;28;20072;-84
2023/04/01 06:40:20;;;;;;;4.35;2.97;;;;;;;;;;6241700;28;20333;-83
2023/04/01 06:43:27;;;;;;;5.45;2.08;;;;;;;;;;6225885;28;20054;-84
2023/04/01 06:46:37;;;;;;;4.95;2.80;;;;;;;;;;6237998;28;20061;-84
2023/04/01 06:49:49;;;;;;;6.35;2.45;;;;;;;;;;6239584;28;20065;-84
2023/04/01 06:52:57;;;;;;;4.78;2.38;;;;;;;;;;6240929;28;20072;-83
2023/04/01 06:56:02;;;;;;;2.88;2.17;;;;;;;;;;6238865;28;20237;-80
2023/04/01 06:59:06;;;;;;;4.72;2.30;;;;;;;;;;6240943;28;20284;-79
2023/04/01 07:02:19;;;;;;;6.20;2.15;;;;;;;;;;6228277;28;20353;-77
2023/04/01 07:05:22;;;;;;;3.20;2.30;;;;;;;;;;6239202;28;20348;-81
2023/04/01 07:08:26;;;;;;;8.15;2.50;;;;;;;;;;6238054;28;20069;-82
2023/04/01 07:11:32;;;;;;;3.88;2.28;;;;;;;;;;6238616;28;20269;-85
2023/04/01 07:14:37;;;;;;;3.45;2.10;;;;;;;;;;6240948;28;20057;-82
2023/04/01 07:17:40;;;;;;;4.78;2.40;;;;;;;;;;6239279;28;20061;-80
2023/04/01 07:20:42;;;;;;;4.63;2.35;;;;;;;;;;6244052;28;20335;-81
2023/04/01 07:23:46;;;;;;;4.18;1.95;;;;;;;;;;6244921;28;20961;-80
2023/04/01 07:26:48;;;;;;;4.40;1.80;;;;;;;;;;6241651;28;20057;-81
2023/04/01 07:29:51;;;;;;;4.03;1.55;;;;;;;;;;6242938;28;20046;-81
2023/04/01 07:32:56;;;;;;;5.15;2.20;;;;;;;;;;6241419;28;20045;-81
2023/04/01 07:36:04;;;;;;;3.35;1.98;;;;;;;;;;6245641;28;20060;-80
2023/04/01 07:39:13;;;;;;;2.33;1.80;;;;;;;;;;6242241;28;20057;-80
2023/04/01 07:42:22;;;;;;;2.75;1.75;;;;;;;;;;6244054;28;20064;-80
2023/04/01 07:45:32;;;;;;;2.17;1.63;;;;;;;;;;6242340;28;20268;-82
2023/04/01 07:48:38;;;;;;;3.53;1.95;;;;;;;;;;6243666;28;20065;-80
2023/04/01 07:51:47;;;;;;;4.38;2.00;;;;;;;;;;6239418;28;20329;-79
2023/04/01 07:54:52;;;;;;;3.80;1.73;;;;;;;;;;6242726;28;20049;-81
2023/04/01 07:57:58;;;;;;;4.95;1.77;;;;;;;;;;6244453;28;20218;-81
2023/04/01 08:01:07;;;;;;;5.60;1.88;;;;;;;;;;6244618;28;20057;-80
2023/04/01 08:04:29;;;;;;;4.95;2.20;;;;;;;;;;6245502;28;20045;-81
2023/04/01 08:07:36;;;;;;;4.57;1.30;;;;;;;;;;6242149;28;20061;-80
2023/04/01 08:10:42;;;;;;;4.05;1.80;;;;;;;;;;6250445;28;20044;-80
2023/04/01 08:13:48;;;;;;;2.30;1.25;;;;;;;;;;6241458;28;20055;-80
2023/04/01 08:17:00;;;;;;;3.80;1.27;;;;;;;;;;6247363;28;20052;-79
2023/04/01 08:20:15;;;;;;;2.20;1.70;;;;;;;;;;6245306;28;20050;-82
2023/04/01 08:23:22;;;;;;;2.63;1.90;;;;;;;;;;6240016;28;20342;-87
2023/04/01 08:26:42;;;;;;;6.10;2.15;;;;;;;;;;6226639;28;20053;-83
2023/04/01 08:30:07;;;;;;;3.05;1.52;;;;;;;;;;6241019;28;20045;-85
2023/04/01 08:33:17;;;;;;;3.75;1.83;;;;;;;;;;6230083;28;20053;-85
2023/04/01 08:36:28;;;;;;;3.20;1.80;;;;;;;;;;6245522;28;20368;-83
2023/04/01 08:39:35;;;;;;;3.25;1.70;;;;;;;;;;6246177;28;20045;-85
2023/04/01 08:43:04;;;;;;;3.88;1.50;;;;;;;;;;6244987;28;20237;-86
2023/04/01 08:46:40;;;;;;;2.60;1.60;;;;;;;;;;6233900;28;20140;-83
2023/04/01 08:50:15;;;;;;;4.28;1.50;;;;;;;;;;6225193;28;20058;-85
2023/04/01 08:53:30;;;;;;;4.63;1.27;;;;;;;;;;6217320;28;20056;-83
2023/04/01 08:57:12;;;;;;;1.95;1.13;;;;;;;;;;6225391;28;20105;-85
2023/04/01 09:00:29;;;;;;;2.38;1.05;;;;;;;;;;6235699;28;20244;-81
2023/04/01 09:03:49;;;;;;;2.45;1.40;;;;;;;;;;6237433;28;20107;-83
2023/04/01 09:07:07;;;;;;;3.53;1.70;;;;;;;;;;6242261;28;20117;-86
2023/04/01 09:10:47;;;;;;;2.53;1.63;;;;;;;;;;6240571;28;20401;-84
2023/04/01 09:14:21;;;;;;;3.30;1.80;;;;;;;;;;6245751;28;20329;-85
2023/04/01 09:18:11;;;;;;;3.47;1.83;;;;;;;;;;6237085;28;20065;-83
2023/04/01 09:21:42;;;;;;;3.38;1.70;;;;;;;;;;6222664;28;20054;-83
2023/04/01 09:28:42;;;;;;;5.55;2.00;;;;;;;;;;6138707;28;20230;-83
2023/04/01 09:32:09;;;;;;;3.20;2.40;;;;;;;;;;6142949;28;20082;-85
2023/04/01 09:35:37;;;;;;;4.75;1.98;;;;;;;;;;6140677;28;20085;-83
2023/04/01 09:38:48;;;;;;;4.25;1.80;;;;;;;;;;6141052;28;20062;-84
2023/04/01 09:42:22;;;;;;;4.63;1.42;;;;;;;;;;6144664;28;20192;-83
2023/04/01 09:45:38;;;;;;;3.85;1.45;;;;;;;;;;6140640;28;20062;-84
2023/04/01 09:49:28;;;;;;;4.07;1.52;;;;;;;;;;6142361;28;20248;-83
2023/04/01 09:52:39;;;;;;;3.67;1.30;;;;;;;;;;6132151;28;20327;-82
2023/04/01 09:56:31;;;;;;;2.28;1.60;;;;;;;;;;6142508;28;20541;-85
2023/04/01 09:59:56;;;;;;;3.80;1.85;;;;;;;;;;6056425;29;20079;-83
2023/04/01 10:03:33;;;;;;;2.70;1.38;;;;;;;;;;6057250;29;20057;-83
2023/04/01 10:07:05;;;;;;;2.25;1.42;;;;;;;;;;6151514;28;20342;-83
2023/04/01 10:10:40;;;;;;;2.15;1.88;;;;;;;;;;6151721;28;20043;-84
2023/04/01 10:14:11;;;;;;;3.80;2.00;;;;;;;;;;6151200;28;20114;-83
2023/04/01 10:17:42;;;;;;;3.95;2.20;;;;;;;;;;6143209;28;20051;-82
2023/04/01 10:20:55;;;;;;;5.43;1.92;;;;;;;;;;6151431;28;20085;-82
2023/04/01 10:24:25;;;;;;;5.30;1.70;;;;;;;;;;6144221;28;20055;-82
2023/04/01 10:27:39;;;;;;;2.75;1.50;;;;;;;;;;6136570;28;20058;-81
2023/04/01 10:30:55;;;;;;;;;;;;;;;;;;6154048;28;20327;-82
2023/04/01 10:34:20;;;;;;;2.75;0.93;;;;;;;;;;6162613;28;19931;-84
2023/04/01 10:37:41;;;;;;;1.50;1.10;;;;;;;;;;6241635;28;20302;-82
2023/04/01 10:40:58;;;;;;;4.65;2.20;;;;;;;;;;6242268;28;20060;-83
2023/04/01 10:44:39;;;;;;;4.53;1.83;;;;;;;;;;6237934;28;20057;-81
2023/04/01 10:48:15;;;;;;;5.07;1.30;;;;;;;;;;6230557;28;20042;-82
2023/04/01 10:51:53;;;;;;;3.42;1.13;;;;;;;;;;6238645;28;20053;-84
2023/04/01 10:55:19;;;;;;;4.38;1.48;;;;;;;;;;6221139;28;20045;-83
2023/04/01 10:58:55;;;;;;;1.65;1.20;;;;;;;;;;6235821;28;20050;-83
2023/04/01 11:02:36;;;;;;;4.60;1.45;;;;;;;;;;6239266;28;20061;-81
2023/04/01 11:06:06;;;;;;;2.58;1.38;;;;;;;;;;6240814;28;20042;-82
2023/04/01 11:09:58;;;;;;;3.33;1.10;;;;;;;;;;6237581;28;20085;-83
2023/04/01 11:13:27;;;;;;;1.45;0.80;;;;;;;;;;6241032;28;20053;-83
2023/04/01 11:17:07;;;;;;;2.22;1.00;;;;;;;;;;6221202;28;20372;-83
2023/04/01 11:20:36;;;;;;;7.07;2.08;;;;;;;;;;6237106;28;20108;-82
2023/04/01 11:24:02;;;;;;;2.25;0.68;;;;;;;;;;6237838;28;20053;-82
2023/04/01 11:27:15;;;;;;;1.25;0.70;;;;;;;;;;6238521;28;20111;-82
2023/04/01 11:30:29;;;;;;;4.00;0.88;;;;;;;;;;6238167;28;20064;-82
2023/04/01 11:33:35;;;;;;;1.30;0.65;;;;;;;;;;6242727;28;20209;-83
2023/04/01 11:36:43;;;;;;;1.48;0.47;;;;;;;;;;6236126;28;20105;-83
2023/04/01 11:40:00;;;;;;;0.90;0.63;;;;;;;;;;6238409;28;20069;-83
2023/04/01 11:43:09;;;;;;;1.92;1.13;;;;;;;;;;6238990;28;20087;-82
2023/04/01 11:46:17;;;;;;;2.45;0.82;;;;;;;;;;6242860;28;20072;-82
2023/04/01 11:49:31;;;;;;;0.80;0.60;;;;;;;;;;6240590;28;20333;-82
2023/04/01 11:52:49;;;;;;;2.60;0.80;;;;;;;;;;6244260;28;20049;-82
2023/04/01 11:55:57;;;;;;;1.40;0.77;;;;;;;;;;6226449;28;20084;-82
2023/04/01 11:59:40;;;;;;;0.50;0.40;;;;;;;;;;6242561;28;20122;-82
2023/04/01 12:02:55;;;;;;;4.47;0.60;;;;;;;;;;6242082;28;20289;-83
2023/04/01 12:06:03;;;;;;;3.00;0.55;;;;;;;;;;6245316;28;20053;-83
2023/04/01 12:09:10;;;;;;;3.92;0.60;;;;;;;;;;6243604;28;20065;-84
2023/04/01 12:12:21;;;;;;;2.55;0.63;;;;;;;;;;6244274;28;20284;-83
2023/04/01 12:15:29;;;;;;;0.43;0.40;;;;;;;;;;6243700;28;20308;-86
2023/04/01 12:18:37;;;;;;;2.83;0.80;;;;;;;;;;6244794;28;20061;-83
2023/04/01 12:21:44;;;;;;;2.58;0.40;;;;;;;;;;6242726;28;20053;-84
2023/04/01 12:24:48;;;;;;;1.55;0.45;;;;;;;;;;6243580;28;20069;-84
2023/04/01 12:28:04;;;;;;;3.33;0.70;;;;;;;;;;6245080;28;20056;-84
2023/04/01 12:31:19;;;;;;;0.65;0.50;;;;;;;;;;6242634;28;20145;-83
2023/04/01 12:34:58;;;;;;;2.17;0.50;;;;;;;;;;6243495;28;20064;-84
2023/04/01 12:38:09;;;;;;;1.35;0.50;;;;;;;;;;6231011;28;20065;-84
2023/04/01 12:41:15;;;;;;;2.47;0.30;;;;;;;;;;6245822;28;20053;-82
2023/04/01 12:44:28;;;;;;;0.60;0.45;;;;;;;;;;6243145;28;20058;-84
2023/04/01 12:48:01;;;;;;;1.05;0.32;;;;;;;;;;6242556;28;20057;-80
2023/04/01 12:51:28;;;;;;;0.73;0.40;;;;;;;;;;6239694;28;20049;-83
2023/04/01 12:54:49;;;;;;;0.52;0.30;;;;;;;;;;6241179;28;20061;-80
2023/04/01 12:58:23;;;;;;;0.52;0.40;;;;;;;;;;6241191;28;20350;-80
2023/04/01 13:01:31;;;;;;;2.05;0.40;;;;;;;;;;6239462;28;20038;-81
2023/04/01 13:05:05;;;;;;;0.43;0.30;;;;;;;;;;6243250;28;20344;-80
2023/04/01 13:08:22;;;;;;;1.63;0.60;;;;;;;;;;6236360;28;20111;-80
2023/04/01 13:11:31;;;;;;;0.30;0.20;;;;;;;;;;6241647;28;20038;-80
2023/04/01 13:14:53;;;;;;;0.68;0.30;;;;;;;;;;6238776;28;20149;-81
2023/04/01 13:18:00;;;;;;;0.28;0.25;;;;;;;;;;6243816;28;20046;-80
2023/04/01 13:21:07;;;;;;;0.20;0.20;;;;;;;;;;6242454;28;20080;-79
2023/04/01 13:24:18;;;;;;;0.30;0.30;;;;;;;;;;6243125;28;20249;-80
2023/04/01 13:27:25;;;;;;;1.05;0.28;;;;;;;;;;6225897;28;20073;-80
2023/04/01 13:30:32;;;;;;;0.30;0.30;;;;;;;;;;6242351;28;20061;-82
2023/04/01 13:33:39;;;;;;;0.40;0.30;;;;;;;;;;6238676;28;20436;-82
2023/04/01 13:36:51;;;;;;;0.45;0.40;;;;;;;;;;6239357;28;20088;-81
2023/04/01 13:40:06;;;;;;;0.30;0.30;;;;;;;;;;6241720;28;20083;-81
2023/04/01 13:43:13;;;;;;;3.35;0.52;;;;;;;;;;6241126;28;20210;-83
2023/04/01 13:46:37;;;;;;;0.47;0.30;;;;;;;;;;6243250;28;20103;-84
2023/04/01 13:50:23;;;;;;;1.60;0.30;;;;;;;;;;6243758;28;20061;-83
2023/04/01 13:53:45;;;;;;;5.35;0.50;;;;;;;;;;6239139;28;20306;-83
2023/04/01 13:56:52;;;;;;;2.30;0.50;;;;;;;;;;6243327;28;20056;-82
2023/04/01 14:00:21;;;;;;;3.92;0.40;;;;;;;;;;6241928;28;20096;-79
2023/04/01 14:03:44;;;;;;;2.08;0.30;;;;;;;;;;6231585;28;20092;-79
2023/04/01 14:06:51;;;;;;;;;;;;;;;;;;6241365;28;20053;-79
2023/04/01 14:10:04;;;;;;;2.17;1.17;;;;;;;;;;6241167;28;19940;-81
2023/04/01 14:13:13;;;;;;;0.75;0.40;;;;;;;;;;6239767;28;20049;-79
2023/04/01 14:16:38;;;;;;;0.30;0.30;;;;;;;;;;6240608;28;20050;-81
2023/04/01 14:20:13;;;;;;;3.75;1.13;;;;;;;;;;6225652;28;20064;-82
2023/04/01 14:23:37;;;;;;;1.33;0.50;;;;;;;;;;6233066;28;20330;-82
2023/04/01 14:27:07;;;;;;;0.85;0.40;;;;;;;;;;6238832;28;20057;-82
2023/04/01 14:30:34;;;;;;;0.88;0.43;;;;;;;;;;6229753;28;20158;-83
2023/04/01 14:33:44;;;;;;;0.40;0.30;;;;;;;;;;6239208;28;20124;-82
2023/04/01 14:37:05;;;;;;;1.98;0.40;;;;;;;;;;6238622;28;20053;-83
2023/04/01 14:40:35;;;;;;;1.02;0.35;;;;;;;;;;6240665;28;20053;-81
2023/04/01 14:43:49;;;;;;;1.02;0.30;;;;;;;;;;6238510;28;20352;-82
2023/04/01 14:47:16;;;;;;;0.50;0.30;;;;;;;;;;6237288;28;20055;-82
2023/04/01 14:50:19;;;;;;;0.47;0.30;;;;;;;;;;6239717;28;20384;-81
2023/04/01 14:53:28;;;;;;;2.28;0.30;;;;;;;;;;6238740;28;20061;-82
2023/04/01 14:56:37;;;;;;;17.85;1.50;;;;;;;;;;6240608;28;20061;-82
2023/04/01 14:59:41;;;;;;;4.22;0.28;;;;;;;;;;6240111;28;20048;-81
2023/04/01 15:02:52;;;;;;;0.70;0.30;;;;;;;;;;6240601;28;20260;-81
2023/04/01 15:06:02;;;;;;;2.25;0.30;;;;;;;;;;6223851;28;20088;-82
2023/04/01 15:09:07;;;;;;;0.43;0.28;;;;;;;;;;6236818;28;20049;-81
2023/04/01 15:12:19;;;;;;;2.17;0.30;;;;;;;;;;6239572;28;20125;-82
2023/04/01 15:15:30;;;;;;;1.75;0.20;;;;;;;;;;6239381;28;20049;-80
2023/04/01 15:18:42;;;;;;;1.15;0.30;;;;;;;;;;6234790;28;20068;-81
2023/04/01 15:22:06;;;;;;;0.50;0.30;;;;;;;;;;6239990;28;20099;-81
2023/04/01 15:25:41;;;;;;;9.63;0.85;;;;;;;;;;6239358;28;20100;-83
2023/04/01 15:28:51;;;;;;;15.98;1.30;;;;;;;;;;6192257;28;20077;-82
2023/04/01 15:31:58;;;;;;;2.08;0.43;;;;;;;;;;6191278;28;20315;-81
2023/04/01 15:35:04;;;;;;;1.10;0.40;;;;;;;;;;6190901;28;20141;-83
2023/04/01 15:38:08;;;;;;;4.82;0.82;;;;;;;;;;6190124;28;20058;-83
2023/04/01 15:41:16;;;;;;;2.67;0.63;;;;;;;;;;6192524;28;20062;-82
2023/04/01 15:44:52;;;;;;;5.90;0.85;;;;;;;;;;6181540;28;20149;-82
2023/04/01 15:48:02;;;;;;;1.02;0.32;;;;;;;;;;6183117;28;21075;-83
2023/04/01 15:51:13;;;;;;;3.22;0.57;;;;;;;;;;6191531;28;20074;-81
2023/04/01 15:54:33;;;;;;;6.82;0.90;;;;;;;;;;6192072;28;20271;-82
2023/04/01 15:57:42;;;;;;;25.10;1.50;;;;;;;;;;6192087;28;20377;-82
2023/04/01 16:00:48;;;;;;;4.25;0.55;;;;;;;;;;6191920;28;20129;-82
2023/04/01 16:03:54;;;;;;;4.90;0.77;;;;;;;;;;6208523;28;20404;-82
2023/04/01 16:07:09;;;;;;;3.55;0.57;;;;;;;;;;6238254;28;20121;-83
2023/04/01 16:10:20;;;;;;;12.38;1.10;;;;;;;;;;6239192;28;20049;-83
2023/04/01 16:13:32;;;;;;;1.43;0.50;;;;;;;;;;6221246;28;20038;-81
2023/04/01 16:16:44;;;;;;;2.35;0.30;;;;;;;;;;6236658;28;20289;-81
2023/04/01 16:19:52;;;;;;;1.02;0.40;;;;;;;;;;6240382;28;20058;-82
2023/04/01 16:23:00;;;;;;;0.80;0.38;;;;;;;;;;6221620;28;20045;-82
2023/04/01 16:26:06;;;;;;;1.33;0.50;;;;;;;;;;6237201;28;20049;-82
2023/04/01 16:29:15;;;;;;;0.88;0.40;;;;;;;;;;6237565;28;20054;-82
2023/04/01 16:32:24;;;;;;;19.15;1.60;;;;;;;;;;6241440;28;20325;-81
2023/04/01 16:35:33;;;;;;;10.65;1.05;;;;;;;;;;6244452;28;20053;-82
2023/04/01 16:38:39;;;;;;;2.13;1.05;;;;;;;;;;6243125;28;20348;-82
2023/04/01 16:41:48;;;;;;;3.80;0.47;;;;;;;;;;6242506;28;20041;-82
2023/04/01 16:44:53;;;;;;;16.42;1.92;;;;;;;;;;6241327;28;20120;-82
2023/04/01 16:47:57;;;;;;;6.45;1.50;;;;;;;;;;6241362;28;20341;-83
2023/04/01 16:51:01;;;;;;;8.00;1.30;;;;;;;;;;6241035;28;20131;-81
2023/04/01 16:54:07;;;;;;;15.85;1.33;;;;;;;;;;6244157;28;20049;-80
2023/04/01 16:57:18;;;;;;;2.58;0.60;;;;;;;;;;6238868;28;20332;-82
2023/04/01 17:00:26;;;;;;;8.55;1.17;;;;;;;;;;6238293;28;20053;-82
2023/04/01 17:03:30;;;;;;;1.17;0.60;;;;;;;;;;6242924;28;20060;-83
2023/04/01 17:06:41;;;;;;;1.13;0.70;;;;;;;;;;6239672;28;20284;-83
2023/04/01 17:09:52;;;;;;;1.42;0.40;;;;;;;;;;6242948;28;20061;-83
2023/04/01 17:13:07;;;;;;;1.80;0.60;;;;;;;;;;6241325;28;20221;-82
2023/04/01 17:16:37;;;;;;;0.80;0.52;;;;;;;;;;6244612;28;20115;-83
2023/04/01 17:19:48;;;;;;;2.65;0.80;;;;;;;;;;6224629;28;20340;-83
2023/04/01 17:22:54;;;;;;;2.03;0.73;;;;;;;;;;6246419;28;20060;-83
2023/04/01 17:26:08;;;;;;;0.98;0.70;;;;;;;;;;6246919;28;20053;-83
2023/04/01 17:29:22;;;;;;;7.57;1.00;;;;;;;;;;6247710;28;20061;-82
2023/04/01 17:32:36;;;;;;;1.50;0.88;;;;;;;;;;6233312;28;20108;-82
2023/04/01 17:35:45;;;;;;;1.42;0.70;;;;;;;;;;6244112;28;20367;-84
2023/04/01 17:39:04;;;;;;;1.20;0.50;;;;;;;;;;6244649;28;20041;-77
2023/04/01 17:42:11;;;;;;;2.00;0.70;;;;;;;;;;6242238;28;20341;-74
2023/04/01 17:45:22;;;;;;;1.63;0.77;;;;;;;;;;6244125;28;20089;-76
2023/04/01 17:48:34;;;;;;;8.40;2.58;;;;;;;;;;6244401;28;20184;-76
2023/04/01 17:51:40;;;;;;;12.55;3.10;;;;;;;;;;6241637;28;20575;-74
2023/04/01 17:54:47;;;;;;;3.67;1.63;;;;;;;;;;6240905;28;20046;-76
2023/04/01 17:57:54;;;;;;;10.75;2.58;;;;;;;;;;6241848;28;20238;-77
2023/04/01 18:01:10;;;;;;;5.20;2.55;;;;;;;;;;6243250;28;20080;-79
2023/04/01 18:04:19;;;;;;;3.97;1.70;;;;;;;;;;6240196;28;20073;-79
2023/04/01 18:07:43;;;;;;;13.82;2.70;;;;;;;;;;6241336;28;20133;-75
2023/04/01 18:11:01;;;;;;;4.50;1.92;;;;;;;;;;6241663;28;20056;-76
2023/04/01 18:14:57;;;;;;;7.38;1.60;;;;;;;;;;6237602;28;20052;-76
2023/04/01 18:18:10;;;;;;;4.57;1.70;;;;;;;;;;6141392;28;20062;-76
2023/04/01 18:21:19;;;;;;;3.92;1.60;;;;;;;;;;6141484;28;20051;-76
2023/04/01 18:24:25;;;;;;;5.72;2.03;;;;;;;;;;6141408;28;20059;-75
2023/04/01 18:27:31;;;;;;;5.25;1.70;;;;;;;;;;6142179;28;20243;-76
2023/04/01 18:30:35;;;;;;;3.72;1.50;;;;;;;;;;6141346;28;20106;-76
2023/04/01 18:33:46;;;;;;;8.38;1.80;;;;;;;;;;6141741;28;20047;-79
2023/04/01 18:36:51;;;;;;;4.63;1.60;;;;;;;;;;6140869;28;20051;-80
2023/04/01 18:39:55;;;;;;;4.75;1.83;;;;;;;;;;6143001;28;20099;-77
2023/04/01 18:43:03;;;;;;;4.63;1.73;;;;;;;;;;6141303;28;20059;-77
2023/04/01 18:46:09;;;;;;;4.85;2.13;;;;;;;;;;6143417;28;20066;-78
2023/04/01 18:49:19;;;;;;;7.93;2.92;;;;;;;;;;6141706;28;20061;-80
2023/04/01 18:52:24;;;;;;;5.63;2.55;;;;;;;;;;6223394;28;20054;-80
2023/04/01 18:55:32;;;;;;;4.22;2.67;;;;;;;;;;6247200;28;20057;-80
2023/04/01 18:58:35;;;;;;;3.60;2.00;;;;;;;;;;6244442;28;20049;-80
2023/04/01 19:01:42;;;;;;;3.75;2.28;;;;;;;;;;6244755;28;20333;-80
2023/04/01 19:04:52;;;;;;;3.60;1.77;;;;;;;;;;6240534;28;20113;-80
2023/04/01 19:07:55;;;;;;;5.43;2.50;;;;;;;;;;6244122;28;20108;-80
2023/04/01 19:11:05;;;;;;;4.60;2.67;;;;;;;;;;6244068;28;20067;-79
2023/04/01 19:14:13;;;;;;;4.07;2.05;;;;;;;;;;6243349;28;20062;-79
2023/04/01 19:17:26;;;;;;;6.78;3.00;;;;;;;;;;6243379;28;20328;-78